createdAt,value
2019-03-13T00:00:29.501Z,6.32
2019-03-13T00:02:58.153Z,6.27
2019-03-13T00:05:26.755Z,6.37
2019-03-13T00:07:55.400Z,6.38
2019-03-13T00:10:24.514Z,6.32
2019-03-13T00:12:53.158Z,6.41
2019-03-13T00:15:22.753Z,6.46
2019-03-13T00:17:51.371Z,6.48
2019-03-13T00:20:19.940Z,6.60
2019-03-13T00:22:48.515Z,6.80
2019-03-13T00:25:17.827Z,6.65
2019-03-13T00:27:46.407Z,6.52
2019-03-13T00:30:15.859Z,6.47
2019-03-13T00:32:44.359Z,6.45
2019-03-13T00:35:12.936Z,6.45
2019-03-13T00:37:41.487Z,6.38
2019-03-13T00:40:11.993Z,6.39
2019-03-13T00:42:40.630Z,6.40
2019-03-13T00:45:14.047Z,6.40
2019-03-13T00:47:42.594Z,6.43
2019-03-13T00:50:29.091Z,6.41
2019-03-13T00:52:57.812Z,6.45
2019-03-13T00:55:26.565Z,6.54
2019-03-13T00:57:55.195Z,6.87
2019-03-13T01:00:25.500Z,6.80
2019-03-13T01:02:55.339Z,6.50
2019-03-13T01:05:28.478Z,6.27
2019-03-13T01:07:57.404Z,6.14
2019-03-13T01:10:26.057Z,6.11
2019-03-13T01:12:54.660Z,5.88
2019-03-13T01:15:23.787Z,5.88
2019-03-13T01:17:52.296Z,5.96
2019-03-13T01:20:20.964Z,6.08
2019-03-13T01:22:49.509Z,6.06
2019-03-13T01:25:18.120Z,6.11
2019-03-13T01:27:47.943Z,6.16
2019-03-13T01:30:16.741Z,6.32
2019-03-13T01:32:53.206Z,6.63
2019-03-13T01:35:29.342Z,6.67
2019-03-13T01:37:57.944Z,6.55
2019-03-13T01:40:26.855Z,6.32
2019-03-13T01:42:55.435Z,6.17
2019-03-13T01:45:24.232Z,6.03
2019-03-13T01:47:52.855Z,6.00
2019-03-13T01:50:21.461Z,5.99
2019-03-13T01:52:49.946Z,6.03
2019-03-13T01:55:18.491Z,6.11
2019-03-13T01:57:47.090Z,6.14
2019-03-13T02:00:17.114Z,6.14
2019-03-13T02:02:45.604Z,6.22
2019-03-13T02:05:14.342Z,6.41
2019-03-13T02:07:42.849Z,6.57
2019-03-13T02:10:12.640Z,6.61
2019-03-13T02:12:41.218Z,6.50
2019-03-13T02:15:12.030Z,6.45
2019-03-13T02:17:40.764Z,6.43
2019-03-13T02:20:10.743Z,6.42
2019-03-13T02:22:39.564Z,6.46
2019-03-13T02:25:16.945Z,6.45
2019-03-13T02:27:45.589Z,6.45
2019-03-13T02:30:19.605Z,6.43
2019-03-13T02:32:48.191Z,6.38
2019-03-13T02:35:16.779Z,6.43
2019-03-13T02:37:45.366Z,6.40
2019-03-13T02:40:15.095Z,6.50
2019-03-13T02:42:43.668Z,6.68
2019-03-13T02:45:13.356Z,6.73
2019-03-13T02:47:41.905Z,6.64
2019-03-13T02:50:17.910Z,6.51
2019-03-13T02:52:46.534Z,6.38
2019-03-13T02:55:15.159Z,6.32
2019-03-13T02:57:43.718Z,6.21
2019-03-13T03:00:19.119Z,6.20
2019-03-13T03:02:49.374Z,6.26
2019-03-13T03:05:18.025Z,6.27
2019-03-13T03:07:46.574Z,6.32
2019-03-13T03:10:15.255Z,6.31
2019-03-13T03:12:43.870Z,6.32
2019-03-13T03:15:15.233Z,6.45
2019-03-13T03:17:43.705Z,6.54
2019-03-13T03:20:17.303Z,6.64
2019-03-13T03:22:45.750Z,6.50
2019-03-13T03:25:16.105Z,6.39
2019-03-13T03:27:44.747Z,6.32
2019-03-13T03:30:21.315Z,6.18
2019-03-13T03:32:49.935Z,6.04
2019-03-13T03:35:18.594Z,6.09
2019-03-13T03:37:47.217Z,6.15
2019-03-13T03:40:23.370Z,6.12
2019-03-13T03:42:52.431Z,6.12
2019-03-13T03:45:21.079Z,6.20
2019-03-13T03:47:49.664Z,6.26
2019-03-13T03:50:18.703Z,6.31
2019-03-13T03:52:47.424Z,6.55
2019-03-13T03:55:16.972Z,6.81
2019-03-13T03:57:45.609Z,6.76
2019-03-13T04:00:21.520Z,6.71
2019-03-13T04:02:50.099Z,6.65
2019-03-13T04:05:19.095Z,6.61
2019-03-13T04:07:47.697Z,6.63
2019-03-13T04:10:17.020Z,6.61
2019-03-13T04:12:45.641Z,6.63
2019-03-13T04:15:18.651Z,6.70
2019-03-13T04:17:47.231Z,6.76
2019-03-13T04:20:20.387Z,6.72
2019-03-13T04:22:49.232Z,6.81
2019-03-13T04:25:23.402Z,6.94
2019-03-13T04:27:52.013Z,7.06
2019-03-13T04:30:20.647Z,7.29
2019-03-13T04:32:49.148Z,7.12
2019-03-13T04:35:17.848Z,6.99
2019-03-13T04:37:46.479Z,6.81
2019-03-13T04:40:15.359Z,6.81
2019-03-13T04:42:43.980Z,6.86
2019-03-13T04:45:12.855Z,6.82
2019-03-13T04:47:41.577Z,6.80
2019-03-13T04:50:13.063Z,6.77
2019-03-13T04:52:41.632Z,6.83
2019-03-13T04:55:14.621Z,6.84
2019-03-13T04:57:43.236Z,6.84
2019-03-13T05:00:23.737Z,6.90
2019-03-13T05:02:52.273Z,7.06
2019-03-13T05:05:41.751Z,7.23
2019-03-13T05:08:12.874Z,7.15
2019-03-13T05:10:41.795Z,7.03
2019-03-13T05:13:10.544Z,6.81
2019-03-13T05:15:39.327Z,6.75
2019-03-13T05:18:07.973Z,6.89
2019-03-13T05:20:36.560Z,6.88
2019-03-13T05:23:05.219Z,6.94
2019-03-13T05:25:33.759Z,7.02
2019-03-13T05:28:02.424Z,7.00
2019-03-13T05:30:31.122Z,6.99
2019-03-13T05:32:59.655Z,6.96
2019-03-13T05:35:28.499Z,7.02
2019-03-13T05:37:57.405Z,7.15
2019-03-13T05:40:26.048Z,7.35
2019-03-13T05:42:54.632Z,7.34
2019-03-13T05:45:23.329Z,7.28
2019-03-13T05:47:51.865Z,7.21
2019-03-13T05:50:20.486Z,7.12
2019-03-13T05:52:49.047Z,7.02
2019-03-13T05:55:17.597Z,7.03
2019-03-13T05:57:46.068Z,7.15
2019-03-13T06:00:16.516Z,7.00
2019-03-13T06:02:47.754Z,7.04
2019-03-13T06:05:15.500Z,7.08
2019-03-13T06:07:44.022Z,7.14
2019-03-13T06:10:16.285Z,7.12
2019-03-13T06:12:44.713Z,7.28
2019-03-13T06:15:16.626Z,7.59
2019-03-13T06:17:45.244Z,7.49
2019-03-13T06:20:19.799Z,7.34
2019-03-13T06:22:48.487Z,7.21
2019-03-13T06:25:17.116Z,7.18
2019-03-13T06:27:46.664Z,7.12
2019-03-13T06:30:17.760Z,7.10
2019-03-13T06:32:46.379Z,7.17
2019-03-13T06:35:15.297Z,7.21
2019-03-13T06:37:43.914Z,7.17
2019-03-13T06:40:22.162Z,7.16
2019-03-13T06:42:50.724Z,7.09
2019-03-13T06:45:19.346Z,7.25
2019-03-13T06:47:47.926Z,7.30
2019-03-13T06:50:25.142Z,7.45
2019-03-13T06:52:53.711Z,7.37
2019-03-13T06:55:22.280Z,7.27
2019-03-13T06:57:50.860Z,7.15
2019-03-13T07:00:27.344Z,7.06
2019-03-13T07:03:12.780Z,6.98
2019-03-13T07:05:59.591Z,7.01
2019-03-13T07:08:33.259Z,6.96
2019-03-13T07:11:06.682Z,7.01
2019-03-13T07:13:39.541Z,6.99
2019-03-13T07:16:22.022Z,7.02
2019-03-13T07:18:55.091Z,7.12
2019-03-13T07:21:28.303Z,7.15
2019-03-13T07:24:01.232Z,7.33
2019-03-13T07:26:34.249Z,7.52
2019-03-13T07:29:20.958Z,7.49
2019-03-13T07:31:51.178Z,7.38
2019-03-13T07:34:37.518Z,7.31
2019-03-13T07:37:24.492Z,7.30
2019-03-13T07:40:06.419Z,7.15
2019-03-13T07:42:42.675Z,7.04
2019-03-13T07:45:16.414Z,6.99
2019-03-13T07:48:04.758Z,7.11
2019-03-13T07:50:37.618Z,7.10
2019-03-13T07:53:07.939Z,7.08
2019-03-13T07:55:52.926Z,7.06
2019-03-13T07:58:23.167Z,7.18
2019-03-13T08:00:53.369Z,7.35
2019-03-13T08:03:23.611Z,7.32
2019-03-13T08:05:56.912Z,7.20
2019-03-13T08:08:43.323Z,7.09
2019-03-13T08:11:13.461Z,6.99
2019-03-13T08:13:43.682Z,6.98
2019-03-13T08:16:29.667Z,7.06
2019-03-13T08:19:08.860Z,7.20
2019-03-13T08:21:39.094Z,7.22
2019-03-13T08:24:15.172Z,7.26
2019-03-13T08:27:00.679Z,7.28
2019-03-13T08:29:34.385Z,7.37
2019-03-13T08:32:21.447Z,7.43
2019-03-13T08:35:03.833Z,7.51
2019-03-13T08:37:50.825Z,7.60
2019-03-13T08:40:30.280Z,7.56
2019-03-13T08:43:06.703Z,7.43
2019-03-13T08:45:52.227Z,7.43
2019-03-13T08:48:25.438Z,7.29
2019-03-13T08:50:55.674Z,7.32
2019-03-13T08:53:28.697Z,7.28
2019-03-13T08:56:10.763Z,7.34
2019-03-13T08:58:55.906Z,7.34
2019-03-13T09:01:35.077Z,7.42
2019-03-13T09:04:23.447Z,7.37
2019-03-13T09:07:09.824Z,7.35
2019-03-13T09:09:42.434Z,7.40
2019-03-13T09:12:12.681Z,7.59
2019-03-13T09:14:42.936Z,7.38
2019-03-13T09:17:15.528Z,7.30
2019-03-13T09:19:54.315Z,7.23
2019-03-13T09:22:30.202Z,7.19
2019-03-13T09:25:11.861Z,7.24
2019-03-13T09:27:47.398Z,7.07
2019-03-13T09:30:17.748Z,7.07
2019-03-13T09:32:48.016Z,7.11
2019-03-13T09:35:27.502Z,7.22
2019-03-13T09:37:57.754Z,7.26
2019-03-13T09:40:39.900Z,7.21
2019-03-13T09:43:10.119Z,7.26
2019-03-13T09:45:52.474Z,7.41
2019-03-13T09:48:31.697Z,7.37
2019-03-13T09:51:08.738Z,7.21
2019-03-13T09:53:41.608Z,7.09
2019-03-13T09:56:26.953Z,7.11
2019-03-13T09:59:06.090Z,7.19
2019-03-13T10:01:39.241Z,7.24
2019-03-13T10:04:21.556Z,7.32
2019-03-13T10:07:07.093Z,7.35
2019-03-13T10:09:52.151Z,7.44
2019-03-13T10:12:25.373Z,7.55
2019-03-13T10:15:01.104Z,7.65
2019-03-13T10:17:43.767Z,7.74
2019-03-13T10:20:19.783Z,7.88
2019-03-13T10:23:06.955Z,8.16
2019-03-13T10:25:39.974Z,8.19
2019-03-13T10:28:16.089Z,7.97
2019-03-13T10:30:46.325Z,7.99
2019-03-13T10:33:22.260Z,7.97
2019-03-13T10:35:58.277Z,7.91
2019-03-13T10:38:28.533Z,7.86
2019-03-13T10:41:04.936Z,7.85
2019-03-13T10:43:51.605Z,7.82
2019-03-13T10:46:21.795Z,7.88
2019-03-13T10:49:08.517Z,7.92
2019-03-13T10:51:41.503Z,7.97
2019-03-13T10:54:20.811Z,8.18
2019-03-13T10:56:57.093Z,8.50
2019-03-13T10:59:27.316Z,8.62
2019-03-13T11:02:09.587Z,8.54
2019-03-13T11:04:55.315Z,8.59
2019-03-13T11:07:41.960Z,8.69
2019-03-13T11:10:15.727Z,8.68
2019-03-13T11:12:48.859Z,8.69
2019-03-13T11:15:24.986Z,8.73
2019-03-13T11:18:00.841Z,8.66
2019-03-13T11:20:39.852Z,8.62
2019-03-13T11:23:16.138Z,8.53
2019-03-13T11:25:58.720Z,8.40
2019-03-13T11:28:38.052Z,8.41
2019-03-13T11:31:14.247Z,8.45
2019-03-13T11:34:00.748Z,8.62
2019-03-13T11:36:40.113Z,8.50
2019-03-13T11:39:19.579Z,8.37
2019-03-13T11:41:49.815Z,8.21
2019-03-13T11:44:32.186Z,8.36
2019-03-13T11:47:08.132Z,8.31
2019-03-13T11:49:41.362Z,8.26
2019-03-13T11:52:30.077Z,8.28
2019-03-13T11:55:16.401Z,8.18
2019-03-13T11:57:55.879Z,8.24
2019-03-13T12:00:32.131Z,8.26
2019-03-13T12:03:05.430Z,8.43
2019-03-13T12:05:38.616Z,8.49
2019-03-13T12:08:08.866Z,8.74
2019-03-13T12:10:39.094Z,8.63
2019-03-13T12:13:10.629Z,8.48
2019-03-13T12:15:57.686Z,8.27
2019-03-13T12:18:27.912Z,8.23
2019-03-13T12:21:10.091Z,8.22
2019-03-13T12:23:56.164Z,8.22
2019-03-13T12:26:38.318Z,8.18
2019-03-13T12:29:20.667Z,8.24
2019-03-13T12:31:50.893Z,8.23
2019-03-13T12:34:26.962Z,8.20
2019-03-13T12:37:13.252Z,8.20
2019-03-13T12:39:46.635Z,8.22
2019-03-13T12:42:16.874Z,8.43
2019-03-13T12:44:56.142Z,8.42
2019-03-13T12:47:32.170Z,8.16
2019-03-13T12:50:05.124Z,8.02
2019-03-13T12:52:35.626Z,7.87
2019-03-13T12:55:12.663Z,7.78
2019-03-13T12:57:46.147Z,7.77
2019-03-13T13:00:19.326Z,7.75
2019-03-13T13:02:55.341Z,7.73
2019-03-13T13:05:28.278Z,7.67
2019-03-13T13:08:04.533Z,7.66
2019-03-13T13:10:51.051Z,7.69
2019-03-13T13:13:24.397Z,7.71
2019-03-13T13:16:00.776Z,7.98
2019-03-13T13:18:47.545Z,8.21
2019-03-13T13:21:16.244Z,8.26
2019-03-13T13:23:44.837Z,8.14
2019-03-13T13:26:13.414Z,8.08
2019-03-13T13:28:42.057Z,8.08
2019-03-13T13:31:10.653Z,8.08
2019-03-13T13:33:39.372Z,8.03
2019-03-13T13:36:08.250Z,8.04
2019-03-13T13:38:36.887Z,7.94
2019-03-13T13:41:05.517Z,7.94
2019-03-13T13:43:34.924Z,7.86
2019-03-13T13:46:12.285Z,7.82
2019-03-13T13:48:40.865Z,7.84
2019-03-13T13:51:09.456Z,7.93
2019-03-13T13:53:38.060Z,8.22
2019-03-13T13:56:06.648Z,8.33
2019-03-13T13:58:35.198Z,8.12
2019-03-13T14:01:04.062Z,7.86
2019-03-13T14:03:32.656Z,7.66
2019-03-13T14:06:01.422Z,7.63
2019-03-13T14:08:30.020Z,7.60
2019-03-13T14:10:58.606Z,7.65
2019-03-13T14:13:27.239Z,7.63
2019-03-13T14:15:55.819Z,7.71
2019-03-13T14:18:24.525Z,7.83
2019-03-13T14:20:53.181Z,8.05
2019-03-13T14:23:21.740Z,8.12
2019-03-13T14:25:50.400Z,8.23
2019-03-13T14:28:19.027Z,8.40
2019-03-13T14:30:47.617Z,8.70
2019-03-13T14:33:16.246Z,8.46
2019-03-13T14:35:46.348Z,8.27
2019-03-13T14:38:15.150Z,8.14
2019-03-13T14:40:43.779Z,7.95
2019-03-13T14:43:12.387Z,7.79
2019-03-13T14:45:41.187Z,7.75
2019-03-13T14:48:09.643Z,7.67
2019-03-13T14:50:38.265Z,7.57
2019-03-13T14:53:06.929Z,7.52
2019-03-13T14:55:36.471Z,7.53
2019-03-13T14:58:05.427Z,7.46
2019-03-13T15:00:34.013Z,7.57
2019-03-13T15:03:02.641Z,7.80
2019-03-13T15:05:31.232Z,8.18
2019-03-13T15:07:59.912Z,8.24
2019-03-13T15:10:28.933Z,8.24
2019-03-13T15:12:57.612Z,8.20
2019-03-13T15:15:26.119Z,8.09
2019-03-13T15:17:54.688Z,7.94
2019-03-13T15:20:24.889Z,7.85
2019-03-13T15:22:53.501Z,7.76
2019-03-13T15:25:22.163Z,7.63
2019-03-13T15:27:50.846Z,7.57
2019-03-13T15:30:33.037Z,7.60
2019-03-13T15:33:01.610Z,7.76
2019-03-13T15:35:30.530Z,7.76
2019-03-13T15:38:02.423Z,7.90
2019-03-13T15:40:30.986Z,8.27
2019-03-13T15:42:59.625Z,8.29
2019-03-13T15:45:35.845Z,8.22
2019-03-13T15:48:04.739Z,7.94
2019-03-13T15:50:33.371Z,7.70
2019-03-13T15:53:01.992Z,7.57
2019-03-13T15:55:30.597Z,7.50
2019-03-13T15:57:59.117Z,7.49
2019-03-13T16:00:28.733Z,7.63
2019-03-13T16:02:57.252Z,7.73
2019-03-13T16:05:25.898Z,7.79
2019-03-13T16:07:54.497Z,7.90
2019-03-13T16:10:23.466Z,7.93
2019-03-13T16:12:53.821Z,8.01
2019-03-13T16:15:26.056Z,8.18
2019-03-13T16:17:55.303Z,8.30
2019-03-13T16:20:23.894Z,7.97
2019-03-13T16:22:54.204Z,7.70
2019-03-13T16:25:22.805Z,7.61
2019-03-13T16:27:51.386Z,7.58
2019-03-13T16:30:22.887Z,7.34
2019-03-13T16:32:51.578Z,7.14
2019-03-13T16:35:20.206Z,7.16
2019-03-13T16:37:48.808Z,7.15
2019-03-13T16:40:18.827Z,7.17
2019-03-13T16:42:47.666Z,7.26
2019-03-13T16:45:19.189Z,7.36
2019-03-13T16:47:47.900Z,7.52
2019-03-13T16:50:25.413Z,7.66
2019-03-13T16:52:54.003Z,7.92
2019-03-13T16:55:22.597Z,7.85
2019-03-13T16:57:51.300Z,7.61
2019-03-13T17:00:27.350Z,7.58
2019-03-13T17:02:56.032Z,7.47
2019-03-13T17:05:24.672Z,7.45
2019-03-13T17:07:53.256Z,7.40
2019-03-13T17:10:26.638Z,7.32
2019-03-13T17:12:55.395Z,7.29
2019-03-13T17:15:24.887Z,7.28
2019-03-13T17:17:54.137Z,7.31
2019-03-13T17:20:28.361Z,7.28
2019-03-13T17:22:57.038Z,7.40
2019-03-13T17:25:25.697Z,7.58
2019-03-13T17:27:54.276Z,7.79
2019-03-13T17:30:30.103Z,7.72
2019-03-13T17:32:59.105Z,7.59
2019-03-13T17:35:27.831Z,7.43
2019-03-13T17:37:56.446Z,7.39
2019-03-13T17:40:26.371Z,7.33
2019-03-13T17:42:55.191Z,7.24
2019-03-13T17:45:25.025Z,7.23
2019-03-13T17:47:53.944Z,7.31
2019-03-13T17:50:23.646Z,7.31
2019-03-13T17:52:52.376Z,7.33
2019-03-13T17:55:23.130Z,7.32
2019-03-13T17:57:51.762Z,7.38
2019-03-13T18:00:28.023Z,7.60
2019-03-13T18:02:56.736Z,7.91
2019-03-13T18:05:25.506Z,7.96
2019-03-13T18:07:54.219Z,7.76
2019-03-13T18:10:23.016Z,7.62
2019-03-13T18:12:51.677Z,7.51
2019-03-13T18:15:20.287Z,7.34
2019-03-13T18:17:49.054Z,7.24
2019-03-13T18:20:22.166Z,7.14
2019-03-13T18:22:50.989Z,7.21
2019-03-13T18:25:19.624Z,7.42
2019-03-13T18:27:48.218Z,7.61
2019-03-13T18:30:28.573Z,7.72
2019-03-13T18:32:57.218Z,7.70
2019-03-13T18:35:25.796Z,7.87
2019-03-13T18:37:54.461Z,8.11
2019-03-13T18:40:24.016Z,8.22
2019-03-13T18:42:52.595Z,8.06
2019-03-13T18:45:26.342Z,7.95
2019-03-13T18:47:54.947Z,7.83
2019-03-13T18:50:23.961Z,7.81
2019-03-13T18:52:52.592Z,7.75
2019-03-13T18:55:23.652Z,7.68
2019-03-13T18:57:52.288Z,7.71
2019-03-13T19:00:35.001Z,7.72
2019-03-13T19:03:03.821Z,7.70
2019-03-13T19:05:34.421Z,7.61
2019-03-13T19:08:03.062Z,7.37
2019-03-13T19:10:32.735Z,7.59
2019-03-13T19:13:01.309Z,7.87
2019-03-13T19:15:30.365Z,8.04
2019-03-13T19:18:00.791Z,7.80
2019-03-13T19:20:31.362Z,7.57
2019-03-13T19:23:00.357Z,7.37
2019-03-13T19:25:29.021Z,7.26
2019-03-13T19:27:57.631Z,7.24
2019-03-13T19:30:28.499Z,7.24
2019-03-13T19:32:57.100Z,7.18
2019-03-13T19:35:25.900Z,7.37
2019-03-13T19:37:56.095Z,7.43
2019-03-13T19:40:24.727Z,7.53
2019-03-13T19:42:53.361Z,7.63
2019-03-13T19:45:33.899Z,7.70
2019-03-13T19:48:02.562Z,7.96
2019-03-13T19:50:31.366Z,8.23
2019-03-13T19:53:00.051Z,8.03
2019-03-13T19:55:28.638Z,7.79
2019-03-13T19:57:57.421Z,7.44
2019-03-13T20:00:26.478Z,7.30
2019-03-13T20:03:01.020Z,7.14
2019-03-13T20:05:29.701Z,7.13
2019-03-13T20:07:58.399Z,7.10
2019-03-13T20:10:30.665Z,7.15
2019-03-13T20:12:59.298Z,7.14
2019-03-13T20:15:29.881Z,7.24
2019-03-13T20:17:58.512Z,7.33
2019-03-13T20:20:27.081Z,7.27
2019-03-13T20:23:12.888Z,7.32
2019-03-13T20:25:41.507Z,7.64
2019-03-13T20:28:10.080Z,7.55
2019-03-13T20:30:38.845Z,7.33
2019-03-13T20:33:07.590Z,7.09
2019-03-13T20:35:36.986Z,6.98
2019-03-13T20:38:06.025Z,6.81
2019-03-13T20:40:34.562Z,6.65
2019-03-13T20:43:03.233Z,6.73
2019-03-13T20:45:32.214Z,6.81
2019-03-13T20:48:00.965Z,6.93
2019-03-13T20:50:36.682Z,6.94
2019-03-13T20:52:59.974Z,6.87
2019-03-13T20:55:28.709Z,6.94
2019-03-13T20:57:57.286Z,7.06
2019-03-13T21:00:26.968Z,7.35
2019-03-13T21:02:56.731Z,7.26
2019-03-13T21:05:25.724Z,7.05
2019-03-13T21:07:54.871Z,6.79
2019-03-13T21:10:23.832Z,6.59
2019-03-13T21:12:52.431Z,6.51
2019-03-13T21:15:23.123Z,6.39
2019-03-13T21:17:51.722Z,6.50
2019-03-13T21:20:21.445Z,6.59
2019-03-13T21:22:50.064Z,6.69
2019-03-13T21:25:25.461Z,6.60
2019-03-13T21:27:54.094Z,6.68
2019-03-13T21:30:26.483Z,6.86
2019-03-13T21:32:55.082Z,6.97
2019-03-13T21:35:24.159Z,7.18
2019-03-13T21:37:52.823Z,7.19
2019-03-13T21:40:28.528Z,6.83
2019-03-13T21:42:57.151Z,6.62
2019-03-13T21:45:25.787Z,6.62
2019-03-13T21:47:54.482Z,6.51
2019-03-13T21:50:23.331Z,6.45
2019-03-13T21:52:52.193Z,6.56
2019-03-13T21:55:20.871Z,6.58
2019-03-13T21:57:51.994Z,6.70
2019-03-13T22:00:24.725Z,6.66
2019-03-13T22:02:53.516Z,6.70
2019-03-13T22:05:26.360Z,6.84
2019-03-13T22:07:53.301Z,7.05
2019-03-13T22:10:21.975Z,7.25
2019-03-13T22:12:50.685Z,7.36
2019-03-13T22:15:20.492Z,7.07
2019-03-13T22:17:49.112Z,6.85
2019-03-13T22:20:18.432Z,6.69
2019-03-13T22:22:47.311Z,6.62
2019-03-13T22:25:17.610Z,6.60
2019-03-13T22:27:46.194Z,6.65
2019-03-13T22:30:20.059Z,6.60
2019-03-13T22:32:48.639Z,6.65
2019-03-13T22:35:17.357Z,6.80
2019-03-13T22:37:46.011Z,6.86
2019-03-13T22:40:16.429Z,6.79
2019-03-13T22:42:45.522Z,6.86
2019-03-13T22:45:18.379Z,6.96
2019-03-13T22:47:47.060Z,7.19
2019-03-13T22:50:19.884Z,7.13
2019-03-13T22:52:48.483Z,6.96
2019-03-13T22:55:17.468Z,6.70
2019-03-13T22:57:46.113Z,6.50
2019-03-13T23:00:25.313Z,6.46
2019-03-13T23:02:54.120Z,6.63
2019-03-13T23:05:22.804Z,6.62
2019-03-13T23:07:51.403Z,6.64
2019-03-13T23:10:33.668Z,6.76
2019-03-13T23:13:02.244Z,6.81
2019-03-13T23:15:30.941Z,6.74
2019-03-13T23:17:59.687Z,6.93
2019-03-13T23:20:28.262Z,7.06
2019-03-13T23:22:56.848Z,7.34
2019-03-13T23:25:25.375Z,7.19
2019-03-13T23:27:53.967Z,6.97
2019-03-13T23:30:22.586Z,6.89
2019-03-13T23:32:51.018Z,6.83
2019-03-13T23:35:19.635Z,6.73
2019-03-13T23:37:48.264Z,6.51
2019-03-13T23:40:16.848Z,6.54
2019-03-13T23:42:45.542Z,6.66
2019-03-13T23:45:14.223Z,6.86
2019-03-13T23:47:43.002Z,7.01
2019-03-13T23:50:12.906Z,7.11
2019-03-13T23:52:41.476Z,7.22
2019-03-13T23:55:10.294Z,7.29
2019-03-13T23:57:38.896Z,7.52
